sensor_id;sensor_type;location;lat;lon;timestamp;P1;durP1;ratioP1;P2;durP2;ratioP2
41966;SDS011;27656;53.068;8.818;2023-12-14T00:01:56;8.77;;;6.53;;
41966;SDS011;27656;53.068;8.818;2023-12-14T00:04:38;9.07;;;6.23;;
41966;SDS011;27656;53.068;8.818;2023-12-14T00:07:20;7.17;;;5.10;;
41966;SDS011;27656;53.068;8.818;2023-12-14T00:10:02;8.77;;;5.83;;
41966;SDS011;27656;53.068;8.818;2023-12-14T00:12:47;10.23;;;6.27;;
41966;SDS011;27656;53.068;8.818;2023-12-14T00:15:31;8.60;;;6.80;;
41966;SDS011;27656;53.068;8.818;2023-12-14T00:18:14;10.43;;;7.30;;
41966;SDS011;27656;53.068;8.818;2023-12-14T00:21:24;8.97;;;6.63;;
41966;SDS011;27656;53.068;8.818;2023-12-14T00:24:06;9.00;;;7.17;;
41966;SDS011;27656;53.068;8.818;2023-12-14T00:26:48;10.93;;;8.33;;
41966;SDS011;27656;53.068;8.818;2023-12-14T00:29:29;12.87;;;8.00;;
41966;SDS011;27656;53.068;8.818;2023-12-14T00:32:01;13.37;;;8.43;;
41966;SDS011;27656;53.068;8.818;2023-12-14T00:34:33;12.13;;;8.07;;
41966;SDS011;27656;53.068;8.818;2023-12-14T00:37:03;12.33;;;8.30;;
41966;SDS011;27656;53.068;8.818;2023-12-14T00:39:37;12.47;;;8.13;;
41966;SDS011;27656;53.068;8.818;2023-12-14T00:42:18;12.73;;;8.77;;
41966;SDS011;27656;53.068;8.818;2023-12-14T00:44:59;11.73;;;8.30;;
41966;SDS011;27656;53.068;8.818;2023-12-14T00:47:41;10.00;;;7.40;;
41966;SDS011;27656;53.068;8.818;2023-12-14T00:50:22;10.80;;;6.63;;
41966;SDS011;27656;53.068;8.818;2023-12-14T00:52:52;10.80;;;7.70;;
41966;SDS011;27656;53.068;8.818;2023-12-14T00:55:33;9.63;;;6.80;;
41966;SDS011;27656;53.068;8.818;2023-12-14T00:58:02;10.37;;;7.23;;
41966;SDS011;27656;53.068;8.818;2023-12-14T01:00:44;11.47;;;6.70;;
41966;SDS011;27656;53.068;8.818;2023-12-14T01:03:26;10.07;;;6.57;;
41966;SDS011;27656;53.068;8.818;2023-12-14T01:06:07;9.37;;;6.40;;
41966;SDS011;27656;53.068;8.818;2023-12-14T01:08:37;10.47;;;6.67;;
41966;SDS011;27656;53.068;8.818;2023-12-14T01:11:19;11.60;;;6.97;;
41966;SDS011;27656;53.068;8.818;2023-12-14T01:13:54;9.57;;;6.20;;
41966;SDS011;27656;53.068;8.818;2023-12-14T01:16:25;14.77;;;6.73;;
41966;SDS011;27656;53.068;8.818;2023-12-14T01:19:06;8.10;;;5.93;;
41966;SDS011;27656;53.068;8.818;2023-12-14T01:21:48;9.63;;;5.93;;
41966;SDS011;27656;53.068;8.818;2023-12-14T01:24:30;10.53;;;5.43;;
41966;SDS011;27656;53.068;8.818;2023-12-14T01:27:11;9.33;;;5.40;;
41966;SDS011;27656;53.068;8.818;2023-12-14T01:29:54;7.07;;;4.90;;
41966;SDS011;27656;53.068;8.818;2023-12-14T01:32:35;8.63;;;4.83;;
41966;SDS011;27656;53.068;8.818;2023-12-14T01:35:15;7.80;;;4.63;;
41966;SDS011;27656;53.068;8.818;2023-12-14T01:37:56;7.37;;;4.10;;
41966;SDS011;27656;53.068;8.818;2023-12-14T01:40:48;6.77;;;4.53;;
41966;SDS011;27656;53.068;8.818;2023-12-14T01:43:29;11.83;;;4.43;;
41966;SDS011;27656;53.068;8.818;2023-12-14T01:46:11;6.70;;;3.67;;
41966;SDS011;27656;53.068;8.818;2023-12-14T01:48:46;5.77;;;3.93;;
41966;SDS011;27656;53.068;8.818;2023-12-14T01:51:28;6.97;;;4.27;;
41966;SDS011;27656;53.068;8.818;2023-12-14T01:54:10;7.30;;;4.17;;
41966;SDS011;27656;53.068;8.818;2023-12-14T01:57:02;7.13;;;4.10;;
41966;SDS011;27656;53.068;8.818;2023-12-14T01:59:44;7.10;;;4.13;;
41966;SDS011;27656;53.068;8.818;2023-12-14T02:02:25;6.60;;;4.23;;
41966;SDS011;27656;53.068;8.818;2023-12-14T02:05:09;5.67;;;3.80;;
41966;SDS011;27656;53.068;8.818;2023-12-14T02:07:51;7.33;;;4.07;;
41966;SDS011;27656;53.068;8.818;2023-12-14T02:10:31;7.93;;;4.83;;
41966;SDS011;27656;53.068;8.818;2023-12-14T02:13:02;7.73;;;4.00;;
41966;SDS011;27656;53.068;8.818;2023-12-14T02:15:29;6.90;;;4.27;;
41966;SDS011;27656;53.068;8.818;2023-12-14T02:18:11;6.77;;;3.83;;
41966;SDS011;27656;53.068;8.818;2023-12-14T02:20:42;8.47;;;4.50;;
41966;SDS011;27656;53.068;8.818;2023-12-14T02:23:23;4.60;;;3.20;;
41966;SDS011;27656;53.068;8.818;2023-12-14T02:26:04;6.07;;;3.97;;
41966;SDS011;27656;53.068;8.818;2023-12-14T02:28:49;5.27;;;3.53;;
41966;SDS011;27656;53.068;8.818;2023-12-14T02:31:29;5.40;;;3.47;;
41966;SDS011;27656;53.068;8.818;2023-12-14T02:34:01;6.43;;;3.53;;
41966;SDS011;27656;53.068;8.818;2023-12-14T02:36:43;6.53;;;3.43;;
41966;SDS011;27656;53.068;8.818;2023-12-14T02:39:23;7.47;;;3.50;;
41966;SDS011;27656;53.068;8.818;2023-12-14T02:41:50;5.43;;;3.33;;
41966;SDS011;27656;53.068;8.818;2023-12-14T02:44:31;6.07;;;3.77;;
41966;SDS011;27656;53.068;8.818;2023-12-14T02:47:11;8.07;;;3.90;;
41966;SDS011;27656;53.068;8.818;2023-12-14T02:49:45;6.47;;;3.73;;
41966;SDS011;27656;53.068;8.818;2023-12-14T02:52:16;6.00;;;3.60;;
41966;SDS011;27656;53.068;8.818;2023-12-14T02:54:58;6.13;;;3.83;;
41966;SDS011;27656;53.068;8.818;2023-12-14T02:57:30;7.40;;;3.97;;
41966;SDS011;27656;53.068;8.818;2023-12-14T03:00:11;6.60;;;4.07;;
41966;SDS011;27656;53.068;8.818;2023-12-14T03:02:56;6.30;;;3.53;;
41966;SDS011;27656;53.068;8.818;2023-12-14T03:05:36;5.90;;;3.40;;
41966;SDS011;27656;53.068;8.818;2023-12-14T03:08:17;8.70;;;3.97;;
41966;SDS011;27656;53.068;8.818;2023-12-14T03:11:00;6.90;;;3.90;;
41966;SDS011;27656;53.068;8.818;2023-12-14T03:13:29;7.17;;;4.13;;
41966;SDS011;27656;53.068;8.818;2023-12-14T03:16:10;8.00;;;3.90;;
41966;SDS011;27656;53.068;8.818;2023-12-14T03:18:52;6.43;;;4.07;;
41966;SDS011;27656;53.068;8.818;2023-12-14T03:21:33;7.47;;;4.07;;
41966;SDS011;27656;53.068;8.818;2023-12-14T03:24:15;7.60;;;4.20;;
41966;SDS011;27656;53.068;8.818;2023-12-14T03:26:56;8.70;;;4.17;;
41966;SDS011;27656;53.068;8.818;2023-12-14T03:29:37;7.10;;;4.17;;
41966;SDS011;27656;53.068;8.818;2023-12-14T03:32:18;7.80;;;3.67;;
41966;SDS011;27656;53.068;8.818;2023-12-14T03:34:58;7.63;;;3.40;;
41966;SDS011;27656;53.068;8.818;2023-12-14T03:37:29;4.90;;;2.90;;
41966;SDS011;27656;53.068;8.818;2023-12-14T03:40:37;6.50;;;3.70;;
41966;SDS011;27656;53.068;8.818;2023-12-14T03:43:19;7.30;;;3.00;;
41966;SDS011;27656;53.068;8.818;2023-12-14T03:46:00;8.00;;;3.30;;
41966;SDS011;27656;53.068;8.818;2023-12-14T03:48:42;6.87;;;3.53;;
41966;SDS011;27656;53.068;8.818;2023-12-14T03:51:09;5.10;;;3.20;;
41966;SDS011;27656;53.068;8.818;2023-12-14T03:53:58;6.27;;;3.33;;
41966;SDS011;27656;53.068;8.818;2023-12-14T03:56:39;7.10;;;3.40;;
41966;SDS011;27656;53.068;8.818;2023-12-14T03:59:19;5.23;;;3.20;;
41966;SDS011;27656;53.068;8.818;2023-12-14T04:01:59;4.93;;;3.13;;
41966;SDS011;27656;53.068;8.818;2023-12-14T04:04:40;7.43;;;3.10;;
41966;SDS011;27656;53.068;8.818;2023-12-14T04:07:22;7.40;;;3.87;;
41966;SDS011;27656;53.068;8.818;2023-12-14T04:10:02;8.30;;;3.13;;
41966;SDS011;27656;53.068;8.818;2023-12-14T04:12:45;8.67;;;3.17;;
41966;SDS011;27656;53.068;8.818;2023-12-14T04:15:25;4.20;;;2.87;;
41966;SDS011;27656;53.068;8.818;2023-12-14T04:18:11;6.43;;;3.30;;
41966;SDS011;27656;53.068;8.818;2023-12-14T04:20:51;7.50;;;3.17;;
41966;SDS011;27656;53.068;8.818;2023-12-14T04:23:19;6.40;;;3.30;;
41966;SDS011;27656;53.068;8.818;2023-12-14T04:25:47;5.60;;;3.07;;
41966;SDS011;27656;53.068;8.818;2023-12-14T04:28:22;6.03;;;3.40;;
41966;SDS011;27656;53.068;8.818;2023-12-14T04:31:02;5.40;;;2.97;;
41966;SDS011;27656;53.068;8.818;2023-12-14T04:33:31;8.50;;;3.20;;
41966;SDS011;27656;53.068;8.818;2023-12-14T04:36:33;5.23;;;3.30;;
41966;SDS011;27656;53.068;8.818;2023-12-14T04:39:13;7.10;;;3.40;;
41966;SDS011;27656;53.068;8.818;2023-12-14T04:41:55;4.23;;;3.20;;
41966;SDS011;27656;53.068;8.818;2023-12-14T04:44:36;5.87;;;3.80;;
41966;SDS011;27656;53.068;8.818;2023-12-14T04:47:17;5.13;;;3.17;;
41966;SDS011;27656;53.068;8.818;2023-12-14T04:49:58;5.40;;;3.30;;
41966;SDS011;27656;53.068;8.818;2023-12-14T04:52:38;7.50;;;3.30;;
41966;SDS011;27656;53.068;8.818;2023-12-14T04:55:18;5.50;;;2.60;;
41966;SDS011;27656;53.068;8.818;2023-12-14T04:57:59;4.60;;;2.70;;
41966;SDS011;27656;53.068;8.818;2023-12-14T05:00:40;4.80;;;2.50;;
41966;SDS011;27656;53.068;8.818;2023-12-14T05:03:31;3.40;;;2.13;;
41966;SDS011;27656;53.068;8.818;2023-12-14T05:06:11;2.73;;;2.20;;
41966;SDS011;27656;53.068;8.818;2023-12-14T05:08:54;3.47;;;2.53;;
41966;SDS011;27656;53.068;8.818;2023-12-14T05:11:25;7.40;;;2.83;;
41966;SDS011;27656;53.068;8.818;2023-12-14T05:14:05;8.60;;;3.40;;
41966;SDS011;27656;53.068;8.818;2023-12-14T05:16:47;7.67;;;3.37;;
41966;SDS011;27656;53.068;8.818;2023-12-14T05:19:31;6.03;;;3.83;;
41966;SDS011;27656;53.068;8.818;2023-12-14T05:22:12;6.23;;;3.60;;
41966;SDS011;27656;53.068;8.818;2023-12-14T05:24:52;5.50;;;3.47;;
41966;SDS011;27656;53.068;8.818;2023-12-14T05:27:33;6.93;;;3.83;;
41966;SDS011;27656;53.068;8.818;2023-12-14T05:30:17;5.37;;;3.73;;
41966;SDS011;27656;53.068;8.818;2023-12-14T05:33:01;6.80;;;3.67;;
41966;SDS011;27656;53.068;8.818;2023-12-14T05:35:45;6.27;;;4.10;;
41966;SDS011;27656;53.068;8.818;2023-12-14T05:38:26;10.23;;;4.57;;
41966;SDS011;27656;53.068;8.818;2023-12-14T05:41:08;4.87;;;3.57;;
41966;SDS011;27656;53.068;8.818;2023-12-14T05:43:52;6.77;;;3.67;;
41966;SDS011;27656;53.068;8.818;2023-12-14T05:46:46;6.60;;;4.27;;
41966;SDS011;27656;53.068;8.818;2023-12-14T05:49:26;8.27;;;4.10;;
41966;SDS011;27656;53.068;8.818;2023-12-14T05:52:07;8.87;;;3.90;;
41966;SDS011;27656;53.068;8.818;2023-12-14T05:54:49;5.77;;;3.63;;
41966;SDS011;27656;53.068;8.818;2023-12-14T05:57:29;7.10;;;4.20;;
41966;SDS011;27656;53.068;8.818;2023-12-14T06:00:11;8.47;;;3.73;;
41966;SDS011;27656;53.068;8.818;2023-12-14T06:02:51;8.73;;;4.37;;
41966;SDS011;27656;53.068;8.818;2023-12-14T06:05:33;6.43;;;3.60;;
41966;SDS011;27656;53.068;8.818;2023-12-14T06:08:15;8.00;;;3.50;;
41966;SDS011;27656;53.068;8.818;2023-12-14T06:10:56;4.77;;;3.33;;
41966;SDS011;27656;53.068;8.818;2023-12-14T06:13:37;7.83;;;3.47;;
41966;SDS011;27656;53.068;8.818;2023-12-14T06:16:19;7.83;;;3.77;;
41966;SDS011;27656;53.068;8.818;2023-12-14T06:19:02;9.40;;;3.70;;
41966;SDS011;27656;53.068;8.818;2023-12-14T06:21:42;7.93;;;4.40;;
41966;SDS011;27656;53.068;8.818;2023-12-14T06:24:23;7.73;;;4.00;;
41966;SDS011;27656;53.068;8.818;2023-12-14T06:26:54;8.93;;;3.90;;
41966;SDS011;27656;53.068;8.818;2023-12-14T06:29:34;7.90;;;3.60;;
41966;SDS011;27656;53.068;8.818;2023-12-14T06:32:15;6.10;;;3.70;;
41966;SDS011;27656;53.068;8.818;2023-12-14T06:34:57;8.50;;;4.10;;
41966;SDS011;27656;53.068;8.818;2023-12-14T06:37:40;8.10;;;2.93;;
41966;SDS011;27656;53.068;8.818;2023-12-14T06:40:21;9.60;;;3.30;;
41966;SDS011;27656;53.068;8.818;2023-12-14T06:43:04;6.33;;;3.27;;
41966;SDS011;27656;53.068;8.818;2023-12-14T06:45:46;12.33;;;4.03;;
41966;SDS011;27656;53.068;8.818;2023-12-14T06:48:28;8.13;;;3.90;;
41966;SDS011;27656;53.068;8.818;2023-12-14T06:51:11;7.60;;;3.60;;
41966;SDS011;27656;53.068;8.818;2023-12-14T06:53:52;7.07;;;3.33;;
41966;SDS011;27656;53.068;8.818;2023-12-14T06:56:32;6.90;;;3.40;;
41966;SDS011;27656;53.068;8.818;2023-12-14T06:59:13;7.70;;;3.73;;
41966;SDS011;27656;53.068;8.818;2023-12-14T07:01:43;7.50;;;3.63;;
41966;SDS011;27656;53.068;8.818;2023-12-14T07:04:24;8.80;;;3.63;;
41966;SDS011;27656;53.068;8.818;2023-12-14T07:07:05;9.33;;;3.50;;
41966;SDS011;27656;53.068;8.818;2023-12-14T07:09:47;9.50;;;4.00;;
41966;SDS011;27656;53.068;8.818;2023-12-14T07:12:28;6.03;;;3.30;;
41966;SDS011;27656;53.068;8.818;2023-12-14T07:15:10;7.43;;;3.80;;
41966;SDS011;27656;53.068;8.818;2023-12-14T07:17:37;7.37;;;3.50;;
41966;SDS011;27656;53.068;8.818;2023-12-14T07:20:19;7.13;;;3.57;;
41966;SDS011;27656;53.068;8.818;2023-12-14T07:23:01;5.90;;;2.90;;
41966;SDS011;27656;53.068;8.818;2023-12-14T07:25:42;5.07;;;2.97;;
41966;SDS011;27656;53.068;8.818;2023-12-14T07:28:23;7.50;;;3.53;;
41966;SDS011;27656;53.068;8.818;2023-12-14T07:31:07;7.50;;;3.40;;
41966;SDS011;27656;53.068;8.818;2023-12-14T07:33:43;6.67;;;2.90;;
41966;SDS011;27656;53.068;8.818;2023-12-14T07:36:26;8.00;;;3.20;;
41966;SDS011;27656;53.068;8.818;2023-12-14T07:39:07;7.53;;;3.00;;
41966;SDS011;27656;53.068;8.818;2023-12-14T07:41:51;5.13;;;3.20;;
41966;SDS011;27656;53.068;8.818;2023-12-14T07:44:32;6.83;;;3.20;;
41966;SDS011;27656;53.068;8.818;2023-12-14T07:47:16;8.97;;;3.23;;
41966;SDS011;27656;53.068;8.818;2023-12-14T07:49:57;8.83;;;3.60;;
41966;SDS011;27656;53.068;8.818;2023-12-14T07:52:40;6.47;;;3.10;;
41966;SDS011;27656;53.068;8.818;2023-12-14T07:55:22;7.67;;;3.70;;
41966;SDS011;27656;53.068;8.818;2023-12-14T07:58:04;8.63;;;3.87;;
41966;SDS011;27656;53.068;8.818;2023-12-14T08:00:44;6.53;;;4.03;;
41966;SDS011;27656;53.068;8.818;2023-12-14T08:03:26;10.10;;;4.57;;
41966;SDS011;27656;53.068;8.818;2023-12-14T08:05:53;9.87;;;4.73;;
41966;SDS011;27656;53.068;8.818;2023-12-14T08:08:35;7.77;;;4.40;;
41966;SDS011;27656;53.068;8.818;2023-12-14T08:11:07;7.27;;;4.83;;
41966;SDS011;27656;53.068;8.818;2023-12-14T08:13:49;9.57;;;5.37;;
41966;SDS011;27656;53.068;8.818;2023-12-14T08:16:44;11.70;;;5.87;;
41966;SDS011;27656;53.068;8.818;2023-12-14T08:19:26;14.53;;;7.17;;
41966;SDS011;27656;53.068;8.818;2023-12-14T08:22:14;12.87;;;6.27;;
41966;SDS011;27656;53.068;8.818;2023-12-14T08:24:55;15.70;;;7.80;;
41966;SDS011;27656;53.068;8.818;2023-12-14T08:27:36;15.43;;;8.03;;
41966;SDS011;27656;53.068;8.818;2023-12-14T08:30:17;15.90;;;8.03;;
41966;SDS011;27656;53.068;8.818;2023-12-14T08:33:26;19.33;;;7.60;;
41966;SDS011;27656;53.068;8.818;2023-12-14T08:36:07;13.30;;;7.80;;
41966;SDS011;27656;53.068;8.818;2023-12-14T08:38:49;14.00;;;7.70;;
41966;SDS011;27656;53.068;8.818;2023-12-14T08:41:30;16.40;;;7.90;;
41966;SDS011;27656;53.068;8.818;2023-12-14T08:44:11;15.67;;;7.70;;
41966;SDS011;27656;53.068;8.818;2023-12-14T08:46:52;17.43;;;8.07;;
41966;SDS011;27656;53.068;8.818;2023-12-14T08:49:33;13.70;;;7.37;;
41966;SDS011;27656;53.068;8.818;2023-12-14T08:52:15;14.67;;;7.00;;
41966;SDS011;27656;53.068;8.818;2023-12-14T08:54:57;14.80;;;6.97;;
41966;SDS011;27656;53.068;8.818;2023-12-14T08:57:38;12.90;;;7.37;;
41966;SDS011;27656;53.068;8.818;2023-12-14T09:00:19;11.57;;;6.90;;
41966;SDS011;27656;53.068;8.818;2023-12-14T09:02:54;14.47;;;6.97;;
41966;SDS011;27656;53.068;8.818;2023-12-14T09:05:50;14.60;;;8.10;;
41966;SDS011;27656;53.068;8.818;2023-12-14T09:08:30;11.17;;;6.43;;
41966;SDS011;27656;53.068;8.818;2023-12-14T09:11:11;16.27;;;6.77;;
41966;SDS011;27656;53.068;8.818;2023-12-14T09:13:53;14.27;;;7.10;;
41966;SDS011;27656;53.068;8.818;2023-12-14T09:16:40;12.10;;;7.10;;
41966;SDS011;27656;53.068;8.818;2023-12-14T09:19:21;14.63;;;6.77;;
41966;SDS011;27656;53.068;8.818;2023-12-14T09:22:03;13.97;;;6.53;;
41966;SDS011;27656;53.068;8.818;2023-12-14T09:24:44;19.67;;;7.17;;
41966;SDS011;27656;53.068;8.818;2023-12-14T09:27:25;14.20;;;6.73;;
41966;SDS011;27656;53.068;8.818;2023-12-14T09:30:06;12.43;;;6.63;;
41966;SDS011;27656;53.068;8.818;2023-12-14T09:32:47;14.27;;;6.50;;
41966;SDS011;27656;53.068;8.818;2023-12-14T09:35:29;11.57;;;6.10;;
41966;SDS011;27656;53.068;8.818;2023-12-14T09:38:09;13.93;;;6.43;;
41966;SDS011;27656;53.068;8.818;2023-12-14T09:40:51;11.60;;;6.50;;
41966;SDS011;27656;53.068;8.818;2023-12-14T09:43:33;11.77;;;6.07;;
41966;SDS011;27656;53.068;8.818;2023-12-14T09:46:17;14.80;;;6.97;;
41966;SDS011;27656;53.068;8.818;2023-12-14T09:49:01;10.83;;;6.30;;
41966;SDS011;27656;53.068;8.818;2023-12-14T09:51:42;11.80;;;6.50;;
41966;SDS011;27656;53.068;8.818;2023-12-14T09:54:27;12.03;;;6.10;;
41966;SDS011;27656;53.068;8.818;2023-12-14T09:57:08;15.03;;;6.57;;
41966;SDS011;27656;53.068;8.818;2023-12-14T09:59:53;13.07;;;7.17;;
41966;SDS011;27656;53.068;8.818;2023-12-14T10:02:34;11.27;;;5.93;;
41966;SDS011;27656;53.068;8.818;2023-12-14T10:05:14;11.23;;;6.03;;
41966;SDS011;27656;53.068;8.818;2023-12-14T10:07:59;12.33;;;6.70;;
41966;SDS011;27656;53.068;8.818;2023-12-14T10:10:40;15.73;;;6.83;;
41966;SDS011;27656;53.068;8.818;2023-12-14T10:13:37;11.73;;;6.53;;
41966;SDS011;27656;53.068;8.818;2023-12-14T10:16:28;12.97;;;6.43;;
41966;SDS011;27656;53.068;8.818;2023-12-14T10:19:14;15.10;;;6.47;;
41966;SDS011;27656;53.068;8.818;2023-12-14T10:21:57;12.67;;;6.50;;
41966;SDS011;27656;53.068;8.818;2023-12-14T10:24:37;11.77;;;6.60;;
41966;SDS011;27656;53.068;8.818;2023-12-14T10:27:08;11.07;;;6.27;;
41966;SDS011;27656;53.068;8.818;2023-12-14T10:29:51;17.33;;;7.87;;
41966;SDS011;27656;53.068;8.818;2023-12-14T10:32:33;12.37;;;7.00;;
41966;SDS011;27656;53.068;8.818;2023-12-14T10:35:21;13.17;;;6.90;;
41966;SDS011;27656;53.068;8.818;2023-12-14T10:38:02;14.50;;;6.87;;
41966;SDS011;27656;53.068;8.818;2023-12-14T10:40:35;13.37;;;6.70;;
41966;SDS011;27656;53.068;8.818;2023-12-14T10:43:24;13.07;;;6.63;;
41966;SDS011;27656;53.068;8.818;2023-12-14T10:46:07;20.17;;;8.77;;
41966;SDS011;27656;53.068;8.818;2023-12-14T10:48:51;14.60;;;7.63;;
41966;SDS011;27656;53.068;8.818;2023-12-14T10:51:31;19.77;;;7.20;;
41966;SDS011;27656;53.068;8.818;2023-12-14T10:54:13;14.40;;;6.83;;
41966;SDS011;27656;53.068;8.818;2023-12-14T10:56:55;11.73;;;6.80;;
41966;SDS011;27656;53.068;8.818;2023-12-14T10:59:36;12.93;;;6.80;;
41966;SDS011;27656;53.068;8.818;2023-12-14T11:02:16;11.90;;;6.53;;
41966;SDS011;27656;53.068;8.818;2023-12-14T11:05:02;14.10;;;6.60;;
41966;SDS011;27656;53.068;8.818;2023-12-14T11:07:51;15.17;;;7.43;;
41966;SDS011;27656;53.068;8.818;2023-12-14T11:10:41;15.07;;;7.23;;
41966;SDS011;27656;53.068;8.818;2023-12-14T11:13:24;13.07;;;6.50;;
41966;SDS011;27656;53.068;8.818;2023-12-14T11:16:05;13.87;;;7.27;;
41966;SDS011;27656;53.068;8.818;2023-12-14T11:18:32;14.53;;;7.30;;
41966;SDS011;27656;53.068;8.818;2023-12-14T11:21:20;10.57;;;6.40;;
41966;SDS011;27656;53.068;8.818;2023-12-14T11:23:50;12.43;;;6.73;;
41966;SDS011;27656;53.068;8.818;2023-12-14T11:26:21;12.87;;;6.40;;
41966;SDS011;27656;53.068;8.818;2023-12-14T11:29:13;10.17;;;6.20;;
41966;SDS011;27656;53.068;8.818;2023-12-14T11:31:54;14.17;;;6.40;;
41966;SDS011;27656;53.068;8.818;2023-12-14T11:34:35;17.27;;;6.57;;
41966;SDS011;27656;53.068;8.818;2023-12-14T11:37:16;15.73;;;6.53;;
41966;SDS011;27656;53.068;8.818;2023-12-14T11:39:56;12.57;;;5.87;;
41966;SDS011;27656;53.068;8.818;2023-12-14T11:42:38;11.77;;;6.90;;
41966;SDS011;27656;53.068;8.818;2023-12-14T11:45:06;11.23;;;6.60;;
41966;SDS011;27656;53.068;8.818;2023-12-14T11:47:47;17.60;;;6.57;;
41966;SDS011;27656;53.068;8.818;2023-12-14T11:50:28;11.57;;;6.10;;
41966;SDS011;27656;53.068;8.818;2023-12-14T11:53:09;10.87;;;6.77;;
41966;SDS011;27656;53.068;8.818;2023-12-14T11:55:52;13.07;;;6.97;;
41966;SDS011;27656;53.068;8.818;2023-12-14T11:58:32;10.07;;;6.13;;
41966;SDS011;27656;53.068;8.818;2023-12-14T12:01:18;10.80;;;6.10;;
41966;SDS011;27656;53.068;8.818;2023-12-14T12:04:03;12.60;;;6.43;;
41966;SDS011;27656;53.068;8.818;2023-12-14T12:06:50;12.33;;;6.40;;
41966;SDS011;27656;53.068;8.818;2023-12-14T12:09:41;14.83;;;6.63;;
41966;SDS011;27656;53.068;8.818;2023-12-14T12:12:38;12.13;;;6.43;;
41966;SDS011;27656;53.068;8.818;2023-12-14T12:15:19;11.17;;;6.80;;
41966;SDS011;27656;53.068;8.818;2023-12-14T12:18:00;11.97;;;6.47;;
41966;SDS011;27656;53.068;8.818;2023-12-14T12:20:40;14.77;;;7.33;;
41966;SDS011;27656;53.068;8.818;2023-12-14T12:23:21;14.07;;;6.73;;
41966;SDS011;27656;53.068;8.818;2023-12-14T12:26:03;12.97;;;7.40;;
41966;SDS011;27656;53.068;8.818;2023-12-14T12:28:45;13.27;;;7.30;;
41966;SDS011;27656;53.068;8.818;2023-12-14T12:31:29;9.17;;;6.10;;
41966;SDS011;27656;53.068;8.818;2023-12-14T12:34:11;16.13;;;7.27;;
41966;SDS011;27656;53.068;8.818;2023-12-14T12:36:42;12.80;;;7.80;;
41966;SDS011;27656;53.068;8.818;2023-12-14T12:39:25;11.53;;;6.20;;
41966;SDS011;27656;53.068;8.818;2023-12-14T12:41:57;14.67;;;6.17;;
41966;SDS011;27656;53.068;8.818;2023-12-14T12:44:37;10.93;;;6.00;;
41966;SDS011;27656;53.068;8.818;2023-12-14T12:47:13;10.93;;;6.63;;
41966;SDS011;27656;53.068;8.818;2023-12-14T12:49:54;11.93;;;6.47;;
41966;SDS011;27656;53.068;8.818;2023-12-14T12:53:00;11.00;;;6.50;;
41966;SDS011;27656;53.068;8.818;2023-12-14T12:55:41;12.30;;;5.63;;
41966;SDS011;27656;53.068;8.818;2023-12-14T12:58:22;11.00;;;6.03;;
41966;SDS011;27656;53.068;8.818;2023-12-14T13:01:02;10.53;;;6.30;;
41966;SDS011;27656;53.068;8.818;2023-12-14T13:03:43;12.30;;;6.37;;
41966;SDS011;27656;53.068;8.818;2023-12-14T13:06:18;12.70;;;6.97;;
41966;SDS011;27656;53.068;8.818;2023-12-14T13:09:04;10.20;;;6.47;;
41966;SDS011;27656;53.068;8.818;2023-12-14T13:11:46;12.50;;;6.53;;
41966;SDS011;27656;53.068;8.818;2023-12-14T13:14:28;10.90;;;6.20;;
41966;SDS011;27656;53.068;8.818;2023-12-14T13:16:56;7.93;;;5.97;;
41966;SDS011;27656;53.068;8.818;2023-12-14T13:19:38;10.87;;;5.60;;
41966;SDS011;27656;53.068;8.818;2023-12-14T13:22:18;9.53;;;5.77;;
41966;SDS011;27656;53.068;8.818;2023-12-14T13:25:00;11.17;;;5.43;;
41966;SDS011;27656;53.068;8.818;2023-12-14T13:27:43;11.83;;;6.50;;
41966;SDS011;27656;53.068;8.818;2023-12-14T13:30:23;13.00;;;5.70;;
41966;SDS011;27656;53.068;8.818;2023-12-14T13:33:03;8.07;;;4.93;;
41966;SDS011;27656;53.068;8.818;2023-12-14T13:35:38;10.77;;;6.73;;
41966;SDS011;27656;53.068;8.818;2023-12-14T13:38:19;9.87;;;5.70;;
41966;SDS011;27656;53.068;8.818;2023-12-14T13:40:47;11.93;;;5.60;;
41966;SDS011;27656;53.068;8.818;2023-12-14T13:43:43;9.10;;;5.83;;
41966;SDS011;27656;53.068;8.818;2023-12-14T13:46:26;9.27;;;5.90;;
41966;SDS011;27656;53.068;8.818;2023-12-14T13:49:07;9.33;;;5.57;;
41966;SDS011;27656;53.068;8.818;2023-12-14T13:51:47;12.90;;;6.20;;
41966;SDS011;27656;53.068;8.818;2023-12-14T13:54:29;7.97;;;5.27;;
41966;SDS011;27656;53.068;8.818;2023-12-14T13:57:00;12.40;;;5.97;;
41966;SDS011;27656;53.068;8.818;2023-12-14T13:59:42;9.37;;;5.63;;
41966;SDS011;27656;53.068;8.818;2023-12-14T14:02:25;11.23;;;5.67;;
41966;SDS011;27656;53.068;8.818;2023-12-14T14:04:55;14.07;;;6.43;;
41966;SDS011;27656;53.068;8.818;2023-12-14T14:07:36;7.97;;;5.70;;
41966;SDS011;27656;53.068;8.818;2023-12-14T14:10:16;11.40;;;6.17;;
41966;SDS011;27656;53.068;8.818;2023-12-14T14:12:58;14.10;;;6.20;;
41966;SDS011;27656;53.068;8.818;2023-12-14T14:15:41;12.57;;;7.13;;
41966;SDS011;27656;53.068;8.818;2023-12-14T14:18:21;11.30;;;6.03;;
41966;SDS011;27656;53.068;8.818;2023-12-14T14:21:01;11.90;;;7.00;;
41966;SDS011;27656;53.068;8.818;2023-12-14T14:24:11;17.97;;;7.30;;
41966;SDS011;27656;53.068;8.818;2023-12-14T14:26:52;13.20;;;6.67;;
41966;SDS011;27656;53.068;8.818;2023-12-14T14:29:33;10.47;;;6.37;;
41966;SDS011;27656;53.068;8.818;2023-12-14T14:32:14;15.07;;;7.27;;
41966;SDS011;27656;53.068;8.818;2023-12-14T14:34:54;13.37;;;6.73;;
41966;SDS011;27656;53.068;8.818;2023-12-14T14:37:38;15.57;;;7.03;;
41966;SDS011;27656;53.068;8.818;2023-12-14T14:40:18;13.83;;;7.10;;
41966;SDS011;27656;53.068;8.818;2023-12-14T14:42:58;14.37;;;7.20;;
41966;SDS011;27656;53.068;8.818;2023-12-14T14:45:40;11.63;;;6.57;;
41966;SDS011;27656;53.068;8.818;2023-12-14T14:48:21;12.77;;;7.10;;
41966;SDS011;27656;53.068;8.818;2023-12-14T14:51:02;11.60;;;7.03;;
41966;SDS011;27656;53.068;8.818;2023-12-14T14:53:43;11.97;;;6.20;;
41966;SDS011;27656;53.068;8.818;2023-12-14T14:56:23;12.40;;;6.97;;
41966;SDS011;27656;53.068;8.818;2023-12-14T14:59:04;11.97;;;6.67;;
41966;SDS011;27656;53.068;8.818;2023-12-14T15:01:47;11.37;;;7.33;;
41966;SDS011;27656;53.068;8.818;2023-12-14T15:04:18;12.77;;;7.47;;
41966;SDS011;27656;53.068;8.818;2023-12-14T15:07:00;11.27;;;6.80;;
41966;SDS011;27656;53.068;8.818;2023-12-14T15:09:43;14.13;;;6.60;;
41966;SDS011;27656;53.068;8.818;2023-12-14T15:12:25;14.07;;;6.73;;
41966;SDS011;27656;53.068;8.818;2023-12-14T15:15:07;10.83;;;6.83;;
41966;SDS011;27656;53.068;8.818;2023-12-14T15:17:49;11.90;;;6.50;;
41966;SDS011;27656;53.068;8.818;2023-12-14T15:20:33;12.93;;;6.30;;
41966;SDS011;27656;53.068;8.818;2023-12-14T15:23:14;10.27;;;6.03;;
41966;SDS011;27656;53.068;8.818;2023-12-14T15:25:54;16.70;;;8.53;;
41966;SDS011;27656;53.068;8.818;2023-12-14T15:28:37;17.83;;;8.83;;
41966;SDS011;27656;53.068;8.818;2023-12-14T15:31:12;16.47;;;9.43;;
41966;SDS011;27656;53.068;8.818;2023-12-14T15:33:42;17.67;;;10.27;;
41966;SDS011;27656;53.068;8.818;2023-12-14T15:36:14;16.60;;;9.70;;
41966;SDS011;27656;53.068;8.818;2023-12-14T15:38:50;19.57;;;8.97;;
41966;SDS011;27656;53.068;8.818;2023-12-14T15:41:32;17.57;;;9.87;;
41966;SDS011;27656;53.068;8.818;2023-12-14T15:44:16;16.20;;;9.37;;
41966;SDS011;27656;53.068;8.818;2023-12-14T15:46:55;15.87;;;9.90;;
41966;SDS011;27656;53.068;8.818;2023-12-14T15:49:37;15.23;;;9.63;;
41966;SDS011;27656;53.068;8.818;2023-12-14T15:52:17;18.20;;;10.13;;
41966;SDS011;27656;53.068;8.818;2023-12-14T15:54:58;20.43;;;10.67;;
41966;SDS011;27656;53.068;8.818;2023-12-14T15:57:40;16.17;;;9.87;;
41966;SDS011;27656;53.068;8.818;2023-12-14T16:00:14;18.57;;;10.37;;
41966;SDS011;27656;53.068;8.818;2023-12-14T16:02:55;20.27;;;10.37;;